Skip Navigation LinksHome page > Tools > METAR decoder Skip Navigation Links

METAR decoder

Settings

METAR

Chicago O'Hare Intl, Chicago

For information only: do not use for flight planning or navigation.
Latest weather
Observation time Monday, September 1, 2014 5:51 PM CDT
Local time Monday, September 1, 2014 6:20 PM CDT
Flight conditions Visual Meteorological Conditions
Winds
Wind direction Southwest (230°)
Wind speed 16 mph
Wind gusting to 25 mph
Peak wind speed 30 mph, 5:09 PM
Peak wind direction Southwest (220°)
Visibility 10 mi.
Sky condition
Ceiling unlimited
Cloud layer scattered clouds 5,000 ft.
Cloud layer scattered clouds 25,000 ft.
Temperature 81°F
Dewpoint 63°F
Altimeter 29.77 in.Hg
Derived measurements
Relative humidity 54%
Heat index 82°F
Density altitude 2516 ft.
Sea-level pressure 29.75 in.Hg
Remarks
Automated weather observing station with precipitation discriminator.
METAR KORD 012251Z 23014G22KT 10SM SCT050 SCT250 27/17 A2977 RMK AO2 PK WND 22026/2209 SLP076 T02720172

InnerDrive.Weather 4.0.5356.0 Release CLR 4.0.30319.34014
Copyright ©2014 Inner Drive Technology. All rights reserved. Portions Copyright ©1986-2014 David Braverman.

Find weather

Site navigation


Skip Navigation Links

Place info

Page info

PayPal - The safer, easier way to pay online!

Return home.

Copyright ©2014 Inner Drive Technology. Purveyors of fine, hand-crafted computer software. Page printed 2014-09-01T23:20:53 UTC.